createdAt,value
2023-04-23T00:02:03.120Z,2.50
2023-04-23T00:04:33.922Z,2.38
2023-04-23T00:07:02.677Z,3.13
2023-04-23T00:09:34.854Z,2.80
2023-04-23T00:12:02.295Z,2.80
2023-04-23T00:14:29.405Z,3.63
2023-04-23T00:16:56.538Z,2.67
2023-04-23T00:19:23.326Z,2.67
2023-04-23T00:21:50.158Z,2.97
2023-04-23T00:24:16.875Z,2.75
2023-04-23T00:26:43.651Z,3.35
2023-04-23T00:29:10.422Z,2.95
2023-04-23T00:31:37.196Z,3.28
2023-04-23T00:34:04.171Z,3.47
2023-04-23T00:36:31.260Z,3.55
2023-04-23T00:38:58.681Z,2.83
2023-04-23T00:41:27.368Z,3.60
2023-04-23T00:43:54.725Z,2.95
2023-04-23T00:46:22.038Z,3.78
2023-04-23T00:48:49.559Z,3.65
2023-04-23T00:51:16.950Z,3.58
2023-04-23T00:53:43.694Z,3.90
2023-04-23T00:56:11.097Z,3.55
2023-04-23T00:58:38.333Z,3.35
2023-04-23T01:01:05.685Z,3.38
2023-04-23T01:03:36.612Z,3.60
2023-04-23T01:06:04.324Z,4.20
2023-04-23T01:08:32.590Z,3.47
2023-04-23T01:11:00.595Z,3.63
2023-04-23T01:13:29.818Z,3.72
2023-04-23T01:15:57.260Z,3.92
2023-04-23T01:18:24.492Z,3.95
2023-04-23T01:20:51.830Z,4.15
2023-04-23T01:23:19.143Z,3.75
2023-04-23T01:25:46.564Z,3.88
2023-04-23T01:28:13.478Z,3.85
2023-04-23T01:30:43.770Z,3.83
2023-04-23T01:33:11.337Z,4.60
2023-04-23T01:35:39.055Z,4.68
2023-04-23T01:38:09.381Z,5.60
2023-04-23T01:40:36.206Z,3.95
2023-04-23T01:43:03.392Z,4.25
2023-04-23T01:45:31.624Z,4.30
2023-04-23T01:48:00.001Z,3.53
2023-04-23T01:50:27.954Z,3.75
2023-04-23T01:52:54.804Z,3.80
2023-04-23T01:55:21.671Z,3.40
2023-04-23T01:57:48.479Z,3.40
2023-04-23T02:00:15.679Z,4.30
2023-04-23T02:02:44.479Z,3.60
2023-04-23T02:05:18.403Z,3.30
2023-04-23T02:07:50.644Z,3.50
2023-04-23T02:10:18.656Z,3.03
2023-04-23T02:12:47.249Z,3.13
2023-04-23T02:15:15.782Z,3.00
2023-04-23T02:17:42.690Z,2.95
2023-04-23T02:20:10.559Z,3.20
2023-04-23T02:22:39.554Z,3.28
2023-04-23T02:25:07.366Z,3.72
2023-04-23T02:27:35.006Z,3.35
2023-04-23T02:30:02.242Z,3.13
2023-04-23T02:32:29.201Z,3.60
2023-04-23T02:34:56.600Z,3.80
2023-04-23T02:37:23.357Z,3.22
2023-04-23T02:39:50.375Z,4.00
2023-04-23T02:42:17.210Z,3.60
2023-04-23T02:44:43.946Z,4.03
2023-04-23T02:47:10.779Z,3.83
2023-04-23T02:49:37.564Z,3.65
2023-04-23T02:52:04.751Z,3.45
2023-04-23T02:54:32.463Z,3.50
2023-04-23T02:56:59.324Z,3.55
2023-04-23T02:59:26.322Z,3.17
2023-04-23T03:01:53.141Z,3.33
2023-04-23T03:04:20.539Z,3.25
2023-04-23T03:06:47.958Z,3.63
2023-04-23T03:09:15.206Z,3.55
2023-04-23T03:11:42.077Z,3.30
2023-04-23T03:14:08.899Z,2.70
2023-04-23T03:16:36.242Z,3.22
2023-04-23T03:19:03.099Z,3.40
2023-04-23T03:21:30.081Z,3.70
2023-04-23T03:23:56.962Z,3.72
2023-04-23T03:26:23.715Z,3.00
2023-04-23T03:28:50.442Z,3.15
2023-04-23T03:31:17.423Z,2.97
2023-04-23T03:33:44.228Z,3.42
2023-04-23T03:36:11.115Z,2.92
2023-04-23T03:38:37.837Z,3.03
2023-04-23T03:41:04.758Z,2.95
2023-04-23T03:43:31.553Z,3.35
2023-04-23T03:45:58.374Z,2.17
2023-04-23T03:48:25.234Z,3.50
2023-04-23T03:50:52.074Z,3.33
2023-04-23T03:53:18.863Z,3.47
2023-04-23T03:55:45.756Z,3.40
2023-04-23T03:58:12.862Z,3.15
2023-04-23T04:00:39.636Z,3.17
2023-04-23T04:03:06.656Z,3.55
2023-04-23T04:05:33.643Z,3.20
2023-04-23T04:08:01.641Z,3.70
2023-04-23T04:10:28.682Z,2.90
2023-04-23T04:12:56.158Z,3.78
2023-04-23T04:15:23.469Z,3.63
2023-04-23T04:17:50.259Z,4.25
2023-04-23T04:20:17.133Z,3.70
2023-04-23T04:22:44.048Z,4.00
2023-04-23T04:25:10.852Z,4.32
2023-04-23T04:27:37.787Z,3.88
2023-04-23T04:30:05.604Z,3.67
2023-04-23T04:32:32.889Z,4.30
2023-04-23T04:34:59.845Z,3.47
2023-04-23T04:37:26.580Z,4.20
2023-04-23T04:39:54.539Z,3.95
2023-04-23T04:42:21.411Z,4.03
2023-04-23T04:44:48.132Z,4.45
2023-04-23T04:47:16.377Z,5.00
2023-04-23T04:49:43.188Z,3.80
2023-04-23T04:52:09.927Z,4.97
2023-04-23T04:54:36.717Z,4.55
2023-04-23T04:57:03.636Z,4.70
2023-04-23T04:59:30.369Z,5.00
2023-04-23T05:01:57.242Z,4.80
2023-04-23T05:04:24.084Z,4.65
2023-04-23T05:06:50.913Z,4.47
2023-04-23T05:09:17.679Z,4.78
2023-04-23T05:11:44.491Z,4.78
2023-04-23T05:14:11.269Z,4.95
2023-04-23T05:16:38.059Z,5.15
2023-04-23T05:19:04.883Z,5.80
2023-04-23T05:21:31.710Z,5.68
2023-04-23T05:23:58.520Z,5.40
2023-04-23T05:26:25.337Z,5.30
2023-04-23T05:28:52.135Z,5.57
2023-04-23T05:31:19.310Z,5.97
2023-04-23T05:33:50.388Z,6.57
2023-04-23T05:36:18.463Z,5.57
2023-04-23T05:38:45.295Z,5.72
2023-04-23T05:41:12.171Z,6.25
2023-04-23T05:43:38.962Z,5.57
2023-04-23T05:46:07.573Z,6.28
2023-04-23T05:48:34.790Z,5.32
2023-04-23T05:51:01.907Z,6.93
2023-04-23T05:53:28.975Z,6.55
2023-04-23T05:55:56.113Z,5.93
2023-04-23T05:58:23.588Z,6.78
2023-04-23T06:00:50.391Z,6.10
2023-04-23T06:03:17.321Z,5.95
2023-04-23T06:05:44.490Z,6.13
2023-04-23T06:08:11.392Z,5.38
2023-04-23T06:10:38.166Z,5.72
2023-04-23T06:13:04.969Z,5.75
2023-04-23T06:15:31.768Z,5.65
2023-04-23T06:17:58.977Z,5.65
2023-04-23T06:20:26.164Z,5.88
2023-04-23T06:22:53.107Z,5.30
2023-04-23T06:25:20.044Z,6.78
2023-04-23T06:27:46.937Z,5.97
2023-04-23T06:30:13.927Z,5.93
2023-04-23T06:32:40.768Z,7.03
2023-04-23T06:35:08.523Z,5.80
2023-04-23T06:37:35.589Z,6.03
2023-04-23T06:40:02.398Z,5.78
2023-04-23T06:42:29.177Z,6.63
2023-04-23T06:44:56.562Z,6.25
2023-04-23T06:47:23.354Z,5.90
2023-04-23T06:49:50.074Z,6.07
2023-04-23T06:52:16.798Z,5.70
2023-04-23T06:54:43.943Z,6.18
2023-04-23T06:57:11.046Z,4.90
2023-04-23T06:59:37.800Z,6.05
2023-04-23T07:02:04.576Z,4.38
2023-04-23T07:04:31.484Z,4.95
2023-04-23T07:06:58.412Z,4.53
2023-04-23T07:09:25.542Z,4.50
2023-04-23T07:11:52.581Z,5.35
2023-04-23T07:14:19.350Z,4.22
2023-04-23T07:16:46.523Z,5.03
2023-04-23T07:19:13.508Z,4.60
2023-04-23T07:21:40.980Z,4.53
2023-04-23T07:24:08.123Z,4.50
2023-04-23T07:26:36.187Z,5.25
2023-04-23T07:29:04.781Z,4.22
2023-04-23T07:31:31.723Z,4.07
2023-04-23T07:34:01.304Z,4.45
2023-04-23T07:36:28.511Z,4.00
2023-04-23T07:38:55.391Z,4.65
2023-04-23T07:41:22.303Z,4.55
2023-04-23T07:46:51.610Z,5.30
2023-04-23T07:49:18.392Z,5.32
2023-04-23T07:51:45.330Z,5.32
2023-04-23T07:54:12.119Z,5.40
2023-04-23T07:56:39.274Z,5.95
2023-04-23T07:59:11.471Z,5.68
2023-04-23T08:01:38.576Z,5.43
2023-04-23T08:04:16.282Z,6.03
2023-04-23T08:06:43.455Z,5.72
2023-04-23T08:09:12.427Z,5.57
2023-04-23T08:11:46.435Z,5.03
2023-04-23T08:14:13.269Z,5.90
2023-04-23T08:16:44.209Z,5.50
2023-04-23T08:19:11.710Z,4.88
2023-04-23T08:21:38.518Z,4.18
2023-04-23T08:24:07.824Z,4.38
2023-04-23T08:26:34.655Z,5.05
2023-04-23T08:29:01.401Z,5.15
2023-04-23T08:31:28.566Z,5.07
2023-04-23T08:33:56.113Z,4.25
2023-04-23T08:36:22.958Z,4.10
2023-04-23T08:38:49.678Z,3.22
2023-04-23T08:41:19.160Z,3.10
2023-04-23T08:43:59.532Z,4.43
2023-04-23T08:46:28.869Z,4.45
2023-04-23T08:48:58.306Z,5.10
2023-04-23T08:51:27.729Z,17.83
2023-04-23T08:53:58.196Z,7.65
2023-04-23T08:56:26.100Z,4.68
2023-04-23T08:58:54.641Z,3.33
2023-04-23T09:01:23.298Z,2.63
2023-04-23T09:03:51.670Z,3.15
2023-04-23T09:06:20.680Z,2.55
2023-04-23T09:08:47.507Z,2.50
2023-04-23T09:11:17.131Z,3.50
2023-04-23T09:13:43.958Z,6.45
2023-04-23T09:16:10.777Z,2.47
2023-04-23T09:18:39.384Z,2.63
2023-04-23T09:21:07.793Z,1.83
2023-04-23T09:23:38.470Z,2.95
2023-04-23T09:26:08.535Z,2.65
2023-04-23T09:28:36.585Z,2.40
2023-04-23T09:31:06.127Z,2.65
2023-04-23T09:33:36.207Z,2.38
2023-04-23T09:36:11.841Z,2.53
2023-04-23T09:38:41.174Z,2.63
2023-04-23T09:41:24.790Z,2.30
2023-04-23T09:43:56.101Z,2.53
2023-04-23T09:46:36.133Z,2.28
2023-04-23T09:49:07.755Z,2.22
2023-04-23T09:51:41.102Z,1.92
2023-04-23T09:54:18.940Z,2.30
2023-04-23T09:56:50.436Z,1.92
2023-04-23T09:59:46.855Z,2.40
2023-04-23T10:02:17.621Z,1.70
2023-04-23T10:04:44.756Z,1.25
2023-04-23T10:07:19.612Z,1.52
2023-04-23T10:09:47.796Z,1.50
2023-04-23T10:14:46.566Z,1.95
2023-04-23T10:17:13.965Z,4.90
2023-04-23T10:19:43.631Z,1.50
2023-04-23T10:24:47.182Z,1.40
2023-04-23T10:27:30.862Z,1.50
2023-04-23T10:30:06.405Z,0.95
2023-04-23T10:32:38.449Z,1.70
2023-04-23T10:37:33.590Z,1.10
2023-04-23T10:40:14.633Z,1.05
2023-04-23T10:42:43.904Z,1.00
2023-04-23T10:45:24.751Z,0.98
2023-04-23T10:50:28.758Z,0.70
2023-04-23T10:52:57.635Z,0.90
2023-04-23T10:55:27.480Z,0.82
2023-04-23T10:58:08.461Z,1.00
2023-04-23T11:00:41.428Z,0.90
2023-04-23T11:03:32.017Z,0.60
2023-04-23T11:06:05.926Z,0.75
2023-04-23T11:08:35.089Z,0.52
2023-04-23T11:11:06.436Z,0.70
2023-04-23T11:13:33.237Z,0.65
2023-04-23T11:16:22.248Z,0.60
2023-04-23T11:19:11.377Z,0.60
2023-04-23T11:22:00.929Z,0.47
2023-04-23T11:24:33.073Z,0.60
2023-04-23T11:27:01.317Z,0.88
2023-04-23T11:29:29.074Z,0.90
2023-04-23T11:34:26.659Z,0.70
2023-04-23T11:36:57.392Z,0.75
2023-04-23T11:39:24.762Z,0.67
2023-04-23T11:41:52.874Z,0.50
2023-04-23T11:44:21.264Z,3.72
2023-04-23T11:46:49.581Z,1.40
2023-04-23T11:49:18.688Z,1.02
2023-04-23T11:51:46.309Z,0.70
2023-04-23T11:54:14.697Z,0.80
2023-04-23T11:56:41.870Z,0.80
2023-04-23T11:59:09.619Z,3.33
2023-04-23T12:01:48.010Z,1.40
2023-04-23T12:04:16.280Z,1.13
2023-04-23T12:06:45.813Z,1.27
2023-04-23T12:11:44.911Z,0.88
2023-04-23T12:14:13.466Z,0.80
2023-04-23T12:16:45.749Z,0.80
2023-04-23T12:19:17.412Z,0.77
2023-04-23T12:24:18.098Z,0.77
2023-04-23T12:26:44.995Z,0.70
2023-04-23T12:29:13.965Z,0.75
2023-04-23T12:31:43.201Z,0.70
2023-04-23T12:34:10.821Z,0.88
2023-04-23T12:36:39.641Z,0.63
2023-04-23T12:39:26.199Z,0.70
2023-04-23T12:41:55.302Z,0.68
2023-04-23T12:44:22.344Z,0.73
2023-04-23T12:47:00.771Z,1.00
2023-04-23T12:49:28.173Z,1.00
2023-04-23T12:51:57.815Z,0.60
2023-04-23T12:54:30.757Z,0.93
2023-04-23T12:56:58.083Z,0.70
2023-04-23T12:59:25.035Z,0.57
2023-04-23T13:01:52.102Z,1.02
2023-04-23T13:04:19.084Z,0.82
2023-04-23T13:06:46.043Z,1.08
2023-04-23T13:09:12.983Z,0.80
2023-04-23T13:11:40.736Z,1.15
2023-04-23T13:14:08.110Z,0.75
2023-04-23T13:16:35.081Z,0.75
2023-04-23T13:19:01.833Z,0.80
2023-04-23T13:21:28.574Z,0.80
2023-04-23T13:23:56.516Z,1.00
2023-04-23T13:26:23.327Z,0.90
2023-04-23T13:28:50.249Z,0.85
2023-04-23T13:31:17.240Z,1.08
2023-04-23T13:33:44.033Z,0.70
2023-04-23T13:36:10.834Z,0.90
2023-04-23T13:38:37.658Z,0.80
2023-04-23T13:41:04.771Z,0.80
2023-04-23T13:43:31.575Z,1.17
2023-04-23T13:45:59.068Z,0.95
2023-04-23T13:48:30.835Z,0.93
2023-04-23T13:50:58.685Z,1.20
2023-04-23T13:53:26.352Z,1.10
2023-04-23T13:55:54.588Z,0.88
2023-04-23T13:58:21.724Z,1.00
2023-04-23T14:00:48.541Z,0.82
2023-04-23T14:03:15.694Z,0.80
2023-04-23T14:05:42.540Z,1.48
2023-04-23T14:08:09.540Z,1.67
2023-04-23T14:10:36.502Z,1.00
2023-04-23T14:13:05.871Z,1.52
2023-04-23T14:15:32.827Z,0.75
2023-04-23T14:17:59.915Z,0.77
2023-04-23T14:20:27.014Z,1.13
2023-04-23T14:23:02.576Z,0.93
2023-04-23T14:25:42.599Z,0.95
2023-04-23T14:28:34.946Z,1.30
2023-04-23T14:31:02.592Z,0.90
2023-04-23T14:33:29.365Z,0.60
2023-04-23T14:35:56.319Z,1.17
2023-04-23T14:38:23.062Z,0.70
2023-04-23T14:40:49.832Z,1.00
2023-04-23T14:43:16.670Z,1.00
2023-04-23T14:45:43.622Z,1.25
2023-04-23T14:48:10.939Z,0.73
2023-04-23T14:50:37.789Z,0.80
2023-04-23T14:53:07.219Z,0.85
2023-04-23T14:55:34.400Z,1.52
2023-04-23T14:58:01.627Z,1.20
2023-04-23T15:00:28.758Z,0.90
2023-04-23T15:02:56.630Z,1.17
2023-04-23T15:05:23.816Z,1.23
2023-04-23T15:07:51.834Z,0.95
2023-04-23T15:10:20.332Z,0.80
2023-04-23T15:13:07.587Z,1.33
2023-04-23T15:15:49.431Z,1.35
2023-04-23T15:18:17.053Z,4.13
2023-04-23T15:20:44.536Z,1.40
2023-04-23T15:23:11.358Z,1.10
2023-04-23T15:25:39.398Z,1.08
2023-04-23T15:28:07.112Z,0.88
2023-04-23T15:30:33.956Z,0.82
2023-04-23T15:33:00.907Z,1.73
2023-04-23T15:35:28.363Z,0.98
2023-04-23T15:37:55.285Z,1.35
2023-04-23T15:40:22.066Z,0.90
2023-04-23T15:42:50.088Z,1.27
2023-04-23T15:45:17.169Z,1.20
2023-04-23T15:47:44.111Z,1.02
2023-04-23T15:50:11.382Z,1.20
2023-04-23T15:52:38.912Z,1.25
2023-04-23T15:55:06.590Z,1.08
2023-04-23T15:57:33.600Z,1.00
2023-04-23T16:00:01.352Z,1.25
2023-04-23T16:02:28.967Z,1.02
2023-04-23T16:04:56.317Z,1.58
2023-04-23T16:07:25.723Z,1.63
2023-04-23T16:09:52.519Z,2.05
2023-04-23T16:12:19.243Z,2.20
2023-04-23T16:14:48.582Z,1.80
2023-04-23T16:17:15.716Z,1.77
2023-04-23T16:19:42.929Z,1.80
2023-04-23T16:22:09.853Z,2.45
2023-04-23T16:24:36.605Z,2.45
2023-04-23T16:27:06.272Z,2.00
2023-04-23T16:29:33.042Z,2.50
2023-04-23T16:31:59.858Z,1.60
2023-04-23T16:34:26.839Z,1.63
2023-04-23T16:36:53.802Z,2.05
2023-04-23T16:39:20.866Z,2.03
2023-04-23T16:41:52.990Z,2.03
2023-04-23T16:44:20.022Z,2.05
2023-04-23T16:46:47.034Z,1.70
2023-04-23T16:49:13.989Z,1.88
2023-04-23T16:51:40.784Z,1.92
2023-04-23T16:54:07.527Z,1.83
2023-04-23T16:56:34.758Z,1.77
2023-04-23T16:59:02.102Z,1.75
2023-04-23T17:01:29.115Z,1.77
2023-04-23T17:03:56.037Z,1.95
2023-04-23T17:06:30.926Z,1.80
2023-04-23T17:09:01.677Z,1.90
2023-04-23T17:11:32.762Z,2.00
2023-04-23T17:13:59.724Z,1.63
2023-04-23T17:16:27.133Z,1.90
2023-04-23T17:18:55.438Z,2.03
2023-04-23T17:21:22.540Z,2.85
2023-04-23T17:23:49.424Z,2.60
2023-04-23T17:26:16.232Z,2.78
2023-04-23T17:28:43.042Z,2.55
2023-04-23T17:31:09.868Z,2.75
2023-04-23T17:33:36.692Z,3.03
2023-04-23T17:36:04.258Z,2.88
2023-04-23T17:38:31.033Z,3.25
2023-04-23T17:40:58.703Z,1.95
2023-04-23T17:43:25.884Z,2.55
2023-04-23T17:45:52.705Z,2.30
2023-04-23T17:48:22.655Z,2.30
2023-04-23T17:50:49.729Z,2.53
2023-04-23T17:53:16.558Z,2.10
2023-04-23T17:55:43.624Z,2.20
2023-04-23T17:58:10.416Z,2.47
2023-04-23T18:00:39.554Z,1.13
2023-04-23T18:03:07.442Z,1.05
2023-04-23T18:05:35.158Z,1.27
2023-04-23T18:08:02.687Z,1.20
2023-04-23T18:10:29.961Z,1.17
2023-04-23T18:12:56.972Z,1.05
2023-04-23T18:15:25.734Z,1.50
2023-04-23T18:17:55.798Z,1.10
2023-04-23T18:20:25.161Z,1.65
2023-04-23T18:22:53.564Z,1.27
2023-04-23T18:25:20.749Z,1.80
2023-04-23T18:27:47.741Z,1.65
2023-04-23T18:30:15.513Z,1.77
2023-04-23T18:32:47.625Z,2.05
2023-04-23T18:35:14.886Z,1.55
2023-04-23T18:37:41.615Z,2.03
2023-04-23T18:40:09.049Z,1.40
2023-04-23T18:42:35.818Z,1.17
2023-04-23T18:45:04.320Z,1.92
2023-04-23T18:47:36.817Z,1.83
2023-04-23T18:50:09.361Z,2.00
2023-04-23T18:52:36.432Z,2.40
2023-04-23T18:55:03.281Z,1.95
2023-04-23T18:57:30.093Z,2.55
2023-04-23T18:59:56.850Z,2.08
2023-04-23T19:02:34.578Z,2.90
2023-04-23T19:05:02.999Z,4.85
2023-04-23T19:07:29.771Z,5.63
2023-04-23T19:09:56.585Z,12.25
2023-04-23T19:12:23.273Z,4.93
2023-04-23T19:14:50.003Z,9.85
2023-04-23T19:17:18.825Z,6.55
2023-04-23T19:19:46.203Z,8.35
2023-04-23T19:22:12.966Z,3.55
2023-04-23T19:24:39.753Z,3.50
2023-04-23T19:27:07.194Z,4.10
2023-04-23T19:29:33.931Z,4.20
2023-04-23T19:32:00.857Z,5.68
2023-04-23T19:34:27.675Z,6.00
2023-04-23T19:36:54.460Z,6.03
2023-04-23T19:39:23.502Z,4.80
2023-04-23T19:41:50.561Z,2.90
2023-04-23T19:44:17.389Z,3.30
2023-04-23T19:46:44.257Z,3.05
2023-04-23T19:49:11.150Z,3.22
2023-04-23T19:51:39.233Z,2.55
2023-04-23T19:54:06.301Z,3.00
2023-04-23T19:56:33.033Z,4.13
2023-04-23T19:58:59.868Z,4.07
2023-04-23T20:01:28.224Z,2.95
2023-04-23T20:03:55.738Z,1.80
2023-04-23T20:06:22.658Z,2.70
2023-04-23T20:09:07.069Z,5.28
2023-04-23T20:11:35.409Z,3.85
2023-04-23T20:14:03.079Z,6.40
2023-04-23T20:16:30.167Z,4.07
2023-04-23T20:18:57.747Z,4.03
2023-04-23T20:21:25.063Z,10.57
2023-04-23T20:23:51.951Z,10.23
2023-04-23T20:26:19.933Z,7.88
2023-04-23T20:28:48.312Z,5.03
2023-04-23T20:31:15.647Z,7.07
2023-04-23T20:33:42.386Z,6.20
2023-04-23T20:36:10.828Z,4.43
2023-04-23T20:38:39.033Z,3.67
2023-04-23T20:41:06.349Z,3.22
2023-04-23T20:43:35.797Z,3.65
2023-04-23T20:46:03.130Z,4.18
2023-04-23T20:48:30.400Z,3.95
2023-04-23T20:50:57.724Z,5.15
2023-04-23T20:53:25.752Z,6.30
2023-04-23T20:55:52.613Z,8.80
2023-04-23T20:58:19.431Z,4.35
2023-04-23T21:00:46.428Z,2.20
2023-04-23T21:03:13.430Z,2.10
2023-04-23T21:05:44.306Z,2.70
2023-04-23T21:08:11.729Z,2.00
2023-04-23T21:10:39.226Z,1.25
2023-04-23T21:13:11.172Z,2.10
2023-04-23T21:15:38.646Z,1.60
2023-04-23T21:18:05.866Z,3.28
2023-04-23T21:20:32.943Z,1.70
2023-04-23T21:23:01.057Z,1.92
2023-04-23T21:25:28.013Z,1.70
2023-04-23T21:27:56.192Z,2.42
2023-04-23T21:30:35.941Z,1.73
2023-04-23T21:33:02.793Z,1.40
2023-04-23T21:35:29.642Z,2.22
2023-04-23T21:37:56.558Z,1.90
2023-04-23T21:40:23.341Z,1.67
2023-04-23T21:42:50.124Z,1.70
2023-04-23T21:45:17.668Z,1.60
2023-04-23T21:47:44.565Z,2.20
2023-04-23T21:50:11.780Z,1.65
2023-04-23T21:52:38.533Z,1.88
2023-04-23T21:55:06.499Z,1.63
2023-04-23T21:57:36.418Z,1.75
2023-04-23T22:00:06.549Z,1.63
2023-04-23T22:02:33.427Z,1.60
2023-04-23T22:05:00.260Z,2.00
2023-04-23T22:07:29.452Z,1.50
2023-04-23T22:09:57.799Z,1.65
2023-04-23T22:12:24.567Z,1.77
2023-04-23T22:14:51.302Z,1.25
2023-04-23T22:17:18.834Z,1.98
2023-04-23T22:19:45.950Z,1.85
2023-04-23T22:22:12.753Z,1.48
2023-04-23T22:24:39.499Z,2.15
2023-04-23T22:27:06.296Z,1.17
2023-04-23T22:29:34.008Z,1.38
2023-04-23T22:32:01.390Z,1.10
2023-04-23T22:34:28.199Z,1.30
2023-04-23T22:36:55.005Z,1.23
2023-04-23T22:39:21.838Z,1.52
2023-04-23T22:41:48.628Z,1.30
2023-04-23T22:44:15.364Z,0.80
2023-04-23T22:46:42.827Z,1.05
2023-04-23T22:49:11.145Z,1.20
2023-04-23T22:51:39.194Z,0.80
2023-04-23T22:54:06.128Z,1.25
2023-04-23T22:56:33.090Z,0.77
2023-04-23T22:59:00.489Z,1.15
2023-04-23T23:01:29.302Z,0.82
2023-04-23T23:03:58.023Z,0.88
2023-04-23T23:06:39.990Z,0.70
2023-04-23T23:09:09.026Z,0.98
2023-04-23T23:11:47.745Z,0.55
2023-04-23T23:14:25.258Z,0.98
2023-04-23T23:16:52.521Z,0.60
2023-04-23T23:19:45.631Z,0.73
2023-04-23T23:22:29.779Z,0.80
2023-04-23T23:25:00.998Z,0.60
2023-04-23T23:27:29.548Z,0.70
2023-04-23T23:29:58.543Z,0.52
2023-04-23T23:32:26.837Z,0.70
2023-04-23T23:34:54.270Z,0.70
2023-04-23T23:37:25.213Z,0.93
2023-04-23T23:42:21.311Z,0.80
2023-04-23T23:44:49.204Z,0.77
2023-04-23T23:47:17.156Z,0.55
2023-04-23T23:49:44.971Z,0.47
2023-04-23T23:52:12.808Z,0.50
2023-04-23T23:54:41.613Z,0.40
2023-04-23T23:57:08.973Z,0.32
2023-04-23T23:59:37.822Z,0.50
